sensor_id;sensor_type;location;lat;lon;timestamp;P1;durP1;ratioP1;P2;durP2;ratioP2
47749;SDS011;49810;48.160;10.812;2023-03-13T00:00:16;5.85;;;1.35;;
47749;SDS011;49810;48.160;10.812;2023-03-13T00:02:44;4.05;;;1.50;;
47749;SDS011;49810;48.160;10.812;2023-03-13T00:05:12;4.30;;;1.40;;
47749;SDS011;49810;48.160;10.812;2023-03-13T00:07:41;6.57;;;1.30;;
47749;SDS011;49810;48.160;10.812;2023-03-13T00:10:09;6.55;;;1.40;;
47749;SDS011;49810;48.160;10.812;2023-03-13T00:12:37;5.28;;;1.08;;
47749;SDS011;49810;48.160;10.812;2023-03-13T00:15:05;3.88;;;1.45;;
47749;SDS011;49810;48.160;10.812;2023-03-13T00:17:33;4.97;;;1.55;;
47749;SDS011;49810;48.160;10.812;2023-03-13T00:20:01;5.63;;;1.40;;
47749;SDS011;49810;48.160;10.812;2023-03-13T00:22:29;3.35;;;1.17;;
47749;SDS011;49810;48.160;10.812;2023-03-13T00:24:58;5.90;;;1.60;;
47749;SDS011;49810;48.160;10.812;2023-03-13T00:27:26;6.35;;;1.73;;
47749;SDS011;49810;48.160;10.812;2023-03-13T00:29:54;6.75;;;1.92;;
47749;SDS011;49810;48.160;10.812;2023-03-13T00:32:21;6.82;;;1.33;;
47749;SDS011;49810;48.160;10.812;2023-03-13T00:34:49;11.05;;;1.75;;
47749;SDS011;49810;48.160;10.812;2023-03-13T00:37:17;7.35;;;1.45;;
47749;SDS011;49810;48.160;10.812;2023-03-13T00:39:45;5.75;;;1.60;;
47749;SDS011;49810;48.160;10.812;2023-03-13T00:42:14;7.47;;;1.65;;
47749;SDS011;49810;48.160;10.812;2023-03-13T00:44:42;5.78;;;1.83;;
47749;SDS011;49810;48.160;10.812;2023-03-13T00:47:09;10.85;;;1.73;;
47749;SDS011;49810;48.160;10.812;2023-03-13T00:49:37;7.20;;;1.95;;
47749;SDS011;49810;48.160;10.812;2023-03-13T00:52:06;5.03;;;1.95;;
47749;SDS011;49810;48.160;10.812;2023-03-13T00:54:34;9.70;;;2.50;;
47749;SDS011;49810;48.160;10.812;2023-03-13T00:57:01;11.70;;;2.70;;
47749;SDS011;49810;48.160;10.812;2023-03-13T00:59:30;7.65;;;2.15;;
47749;SDS011;49810;48.160;10.812;2023-03-13T01:01:58;6.22;;;1.83;;
47749;SDS011;49810;48.160;10.812;2023-03-13T01:04:26;9.50;;;2.30;;
47749;SDS011;49810;48.160;10.812;2023-03-13T01:06:55;8.98;;;2.20;;
47749;SDS011;49810;48.160;10.812;2023-03-13T01:09:23;10.90;;;2.50;;
47749;SDS011;49810;48.160;10.812;2023-03-13T01:11:51;10.75;;;2.00;;
47749;SDS011;49810;48.160;10.812;2023-03-13T01:14:19;9.02;;;2.40;;
47749;SDS011;49810;48.160;10.812;2023-03-13T01:16:48;9.40;;;2.63;;
47749;SDS011;49810;48.160;10.812;2023-03-13T01:19:16;11.48;;;2.50;;
47749;SDS011;49810;48.160;10.812;2023-03-13T01:21:44;10.32;;;2.38;;
47749;SDS011;49810;48.160;10.812;2023-03-13T01:24:12;9.30;;;2.25;;
47749;SDS011;49810;48.160;10.812;2023-03-13T01:26:42;7.70;;;2.47;;
47749;SDS011;49810;48.160;10.812;2023-03-13T01:29:10;8.25;;;3.13;;
47749;SDS011;49810;48.160;10.812;2023-03-13T01:31:38;9.60;;;4.03;;
47749;SDS011;49810;48.160;10.812;2023-03-13T01:34:08;5.65;;;2.88;;
47749;SDS011;49810;48.160;10.812;2023-03-13T01:36:37;11.85;;;2.92;;
47749;SDS011;49810;48.160;10.812;2023-03-13T01:39:05;10.82;;;2.88;;
47749;SDS011;49810;48.160;10.812;2023-03-13T01:41:33;10.73;;;3.40;;
47749;SDS011;49810;48.160;10.812;2023-03-13T01:44:01;6.95;;;2.45;;
47749;SDS011;49810;48.160;10.812;2023-03-13T01:46:35;6.75;;;2.00;;
47749;SDS011;49810;48.160;10.812;2023-03-13T01:49:28;5.90;;;2.15;;
47749;SDS011;49810;48.160;10.812;2023-03-13T01:52:04;8.32;;;2.45;;
47749;SDS011;49810;48.160;10.812;2023-03-13T01:54:39;9.38;;;2.10;;
47749;SDS011;49810;48.160;10.812;2023-03-13T01:57:11;5.78;;;2.08;;
47749;SDS011;49810;48.160;10.812;2023-03-13T01:59:41;10.55;;;3.03;;
47749;SDS011;49810;48.160;10.812;2023-03-13T02:02:10;9.68;;;2.55;;
47749;SDS011;49810;48.160;10.812;2023-03-13T02:04:42;7.15;;;2.65;;
47749;SDS011;49810;48.160;10.812;2023-03-13T02:07:13;9.32;;;3.53;;
47749;SDS011;49810;48.160;10.812;2023-03-13T02:09:43;8.10;;;2.88;;
47749;SDS011;49810;48.160;10.812;2023-03-13T02:12:15;7.72;;;2.55;;
47749;SDS011;49810;48.160;10.812;2023-03-13T02:14:45;9.50;;;2.92;;
47749;SDS011;49810;48.160;10.812;2023-03-13T02:17:14;12.38;;;3.55;;
47749;SDS011;49810;48.160;10.812;2023-03-13T02:19:44;12.43;;;4.05;;
47749;SDS011;49810;48.160;10.812;2023-03-13T02:22:15;11.98;;;4.45;;
47749;SDS011;49810;48.160;10.812;2023-03-13T02:24:47;11.85;;;3.47;;
47749;SDS011;49810;48.160;10.812;2023-03-13T02:27:19;11.25;;;4.13;;
47749;SDS011;49810;48.160;10.812;2023-03-13T02:29:47;11.73;;;4.00;;
47749;SDS011;49810;48.160;10.812;2023-03-13T02:32:15;11.27;;;4.05;;
47749;SDS011;49810;48.160;10.812;2023-03-13T02:34:43;11.30;;;3.45;;
47749;SDS011;49810;48.160;10.812;2023-03-13T02:37:13;11.20;;;3.38;;
47749;SDS011;49810;48.160;10.812;2023-03-13T02:39:42;9.15;;;3.17;;
47749;SDS011;49810;48.160;10.812;2023-03-13T02:42:11;8.63;;;3.42;;
47749;SDS011;49810;48.160;10.812;2023-03-13T02:44:42;12.23;;;4.13;;
47749;SDS011;49810;48.160;10.812;2023-03-13T02:47:15;9.63;;;3.10;;
47749;SDS011;49810;48.160;10.812;2023-03-13T02:49:44;4.82;;;1.60;;
47749;SDS011;49810;48.160;10.812;2023-03-13T02:52:12;4.18;;;1.30;;
47749;SDS011;49810;48.160;10.812;2023-03-13T02:54:42;3.95;;;1.20;;
47749;SDS011;49810;48.160;10.812;2023-03-13T02:57:11;4.57;;;1.00;;
47749;SDS011;49810;48.160;10.812;2023-03-13T02:59:39;28.65;;;13.07;;
47749;SDS011;49810;48.160;10.812;2023-03-13T03:02:08;17.20;;;7.32;;
47749;SDS011;49810;48.160;10.812;2023-03-13T03:04:36;4.25;;;1.33;;
47749;SDS011;49810;48.160;10.812;2023-03-13T03:07:05;3.03;;;1.20;;
47749;SDS011;49810;48.160;10.812;2023-03-13T03:09:33;3.78;;;0.98;;
47749;SDS011;49810;48.160;10.812;2023-03-13T03:12:05;3.28;;;0.90;;
47749;SDS011;49810;48.160;10.812;2023-03-13T03:14:33;3.95;;;0.70;;
47749;SDS011;49810;48.160;10.812;2023-03-13T03:17:01;4.32;;;1.17;;
47749;SDS011;49810;48.160;10.812;2023-03-13T03:19:30;3.22;;;1.33;;
47749;SDS011;49810;48.160;10.812;2023-03-13T03:21:59;5.63;;;1.65;;
47749;SDS011;49810;48.160;10.812;2023-03-13T03:24:27;8.40;;;1.88;;
47749;SDS011;49810;48.160;10.812;2023-03-13T03:26:55;5.28;;;0.90;;
47749;SDS011;49810;48.160;10.812;2023-03-13T03:29:33;7.97;;;2.20;;
47749;SDS011;49810;48.160;10.812;2023-03-13T03:32:01;6.90;;;2.03;;
47749;SDS011;49810;48.160;10.812;2023-03-13T03:34:31;7.43;;;1.90;;
47749;SDS011;49810;48.160;10.812;2023-03-13T03:36:59;4.88;;;1.50;;
47749;SDS011;49810;48.160;10.812;2023-03-13T03:39:27;5.63;;;1.08;;
47749;SDS011;49810;48.160;10.812;2023-03-13T03:41:56;4.72;;;1.20;;
47749;SDS011;49810;48.160;10.812;2023-03-13T03:44:25;3.72;;;1.20;;
47749;SDS011;49810;48.160;10.812;2023-03-13T03:46:55;3.72;;;1.05;;
47749;SDS011;49810;48.160;10.812;2023-03-13T03:49:25;3.58;;;0.80;;
47749;SDS011;49810;48.160;10.812;2023-03-13T03:51:54;4.47;;;1.33;;
47749;SDS011;49810;48.160;10.812;2023-03-13T03:54:28;3.58;;;1.15;;
47749;SDS011;49810;48.160;10.812;2023-03-13T03:56:57;5.70;;;1.33;;
47749;SDS011;49810;48.160;10.812;2023-03-13T03:59:25;3.28;;;1.33;;
47749;SDS011;49810;48.160;10.812;2023-03-13T04:01:55;2.92;;;1.05;;
47749;SDS011;49810;48.160;10.812;2023-03-13T04:04:25;5.10;;;0.90;;
47749;SDS011;49810;48.160;10.812;2023-03-13T04:07:03;2.78;;;1.00;;
47749;SDS011;49810;48.160;10.812;2023-03-13T04:09:32;3.05;;;0.77;;
47749;SDS011;49810;48.160;10.812;2023-03-13T04:12:02;2.10;;;0.82;;
47749;SDS011;49810;48.160;10.812;2023-03-13T04:14:34;3.78;;;1.10;;
47749;SDS011;49810;48.160;10.812;2023-03-13T04:17:04;2.63;;;0.82;;
47749;SDS011;49810;48.160;10.812;2023-03-13T04:19:32;3.72;;;1.70;;
47749;SDS011;49810;48.160;10.812;2023-03-13T04:22:00;4.18;;;1.77;;
47749;SDS011;49810;48.160;10.812;2023-03-13T04:24:30;3.00;;;1.02;;
47749;SDS011;49810;48.160;10.812;2023-03-13T04:26:58;2.88;;;0.85;;
47749;SDS011;49810;48.160;10.812;2023-03-13T04:29:27;3.10;;;0.90;;
47749;SDS011;49810;48.160;10.812;2023-03-13T04:32:15;3.45;;;0.90;;
47749;SDS011;49810;48.160;10.812;2023-03-13T04:34:59;2.50;;;1.05;;
47749;SDS011;49810;48.160;10.812;2023-03-13T04:37:43;4.10;;;0.95;;
47749;SDS011;49810;48.160;10.812;2023-03-13T04:40:25;2.25;;;0.80;;
47749;SDS011;49810;48.160;10.812;2023-03-13T04:43:23;4.07;;;0.95;;
47749;SDS011;49810;48.160;10.812;2023-03-13T04:46:13;2.45;;;0.90;;
47749;SDS011;49810;48.160;10.812;2023-03-13T04:49:01;2.78;;;0.73;;
47749;SDS011;49810;48.160;10.812;2023-03-13T04:51:51;5.65;;;2.35;;
47749;SDS011;49810;48.160;10.812;2023-03-13T04:54:29;10.15;;;3.83;;
47749;SDS011;49810;48.160;10.812;2023-03-13T04:59:45;4.60;;;1.20;;
47749;SDS011;49810;48.160;10.812;2023-03-13T05:02:39;4.10;;;0.80;;
47749;SDS011;49810;48.160;10.812;2023-03-13T05:05:26;2.72;;;1.00;;
47749;SDS011;49810;48.160;10.812;2023-03-13T05:08:17;2.72;;;0.80;;
47749;SDS011;49810;48.160;10.812;2023-03-13T05:11:03;2.17;;;0.90;;
47749;SDS011;49810;48.160;10.812;2023-03-13T05:13:54;2.58;;;0.82;;
47749;SDS011;49810;48.160;10.812;2023-03-13T05:16:43;4.43;;;1.00;;
47749;SDS011;49810;48.160;10.812;2023-03-13T05:19:26;2.08;;;0.90;;
47749;SDS011;49810;48.160;10.812;2023-03-13T05:22:13;3.75;;;1.23;;
47749;SDS011;49810;48.160;10.812;2023-03-13T05:24:59;4.78;;;1.35;;
47749;SDS011;49810;48.160;10.812;2023-03-13T05:27:47;5.07;;;1.40;;
47749;SDS011;49810;48.160;10.812;2023-03-13T05:30:28;3.50;;;1.30;;
47749;SDS011;49810;48.160;10.812;2023-03-13T05:33:06;10.77;;;4.72;;
47749;SDS011;49810;48.160;10.812;2023-03-13T05:35:58;3.80;;;0.98;;
47749;SDS011;49810;48.160;10.812;2023-03-13T05:38:47;2.72;;;1.00;;
47749;SDS011;49810;48.160;10.812;2023-03-13T05:41:37;2.08;;;0.80;;
47749;SDS011;49810;48.160;10.812;2023-03-13T05:44:24;1.17;;;0.60;;
47749;SDS011;49810;48.160;10.812;2023-03-13T05:47:14;3.17;;;0.60;;
47749;SDS011;49810;48.160;10.812;2023-03-13T05:50:07;1.17;;;0.45;;
47749;SDS011;49810;48.160;10.812;2023-03-13T05:53:02;1.77;;;0.70;;
47749;SDS011;49810;48.160;10.812;2023-03-13T05:56:02;2.33;;;0.50;;
47749;SDS011;49810;48.160;10.812;2023-03-13T05:58:48;4.03;;;0.60;;
47749;SDS011;49810;48.160;10.812;2023-03-13T06:01:42;2.08;;;0.55;;
47749;SDS011;49810;48.160;10.812;2023-03-13T06:06:46;2.30;;;0.52;;
47749;SDS011;49810;48.160;10.812;2023-03-13T06:09:16;2.22;;;0.60;;
47749;SDS011;49810;48.160;10.812;2023-03-13T06:11:45;0.90;;;0.60;;
47749;SDS011;49810;48.160;10.812;2023-03-13T06:14:15;1.88;;;0.50;;
47749;SDS011;49810;48.160;10.812;2023-03-13T06:17:06;1.63;;;0.73;;
47749;SDS011;49810;48.160;10.812;2023-03-13T06:19:35;1.13;;;0.38;;
47749;SDS011;49810;48.160;10.812;2023-03-13T06:22:04;1.67;;;0.52;;
47749;SDS011;49810;48.160;10.812;2023-03-13T06:24:32;2.70;;;0.50;;
47749;SDS011;49810;48.160;10.812;2023-03-13T06:27:00;2.63;;;0.50;;
47749;SDS011;49810;48.160;10.812;2023-03-13T06:29:28;2.00;;;0.50;;
47749;SDS011;49810;48.160;10.812;2023-03-13T06:31:56;2.17;;;0.60;;
47749;SDS011;49810;48.160;10.812;2023-03-13T06:34:24;0.93;;;0.40;;
47749;SDS011;49810;48.160;10.812;2023-03-13T06:36:52;1.95;;;0.50;;
47749;SDS011;49810;48.160;10.812;2023-03-13T06:39:21;2.03;;;0.60;;
47749;SDS011;49810;48.160;10.812;2023-03-13T06:41:48;1.25;;;0.60;;
47749;SDS011;49810;48.160;10.812;2023-03-13T06:44:16;2.10;;;0.75;;
47749;SDS011;49810;48.160;10.812;2023-03-13T06:46:44;1.50;;;0.50;;
47749;SDS011;49810;48.160;10.812;2023-03-13T06:49:12;1.63;;;0.65;;
47749;SDS011;49810;48.160;10.812;2023-03-13T06:51:41;2.55;;;0.50;;
47749;SDS011;49810;48.160;10.812;2023-03-13T06:54:09;0.30;;;0.30;;
47749;SDS011;49810;48.160;10.812;2023-03-13T06:56:39;1.73;;;0.50;;
47749;SDS011;49810;48.160;10.812;2023-03-13T06:59:09;1.08;;;0.50;;
47749;SDS011;49810;48.160;10.812;2023-03-13T07:01:37;1.88;;;0.65;;
47749;SDS011;49810;48.160;10.812;2023-03-13T07:04:05;0.60;;;0.30;;
47749;SDS011;49810;48.160;10.812;2023-03-13T07:06:34;3.53;;;0.60;;
47749;SDS011;49810;48.160;10.812;2023-03-13T07:09:02;1.98;;;0.50;;
47749;SDS011;49810;48.160;10.812;2023-03-13T07:11:32;2.10;;;0.65;;
47749;SDS011;49810;48.160;10.812;2023-03-13T07:14:01;1.25;;;0.52;;
47749;SDS011;49810;48.160;10.812;2023-03-13T07:16:42;1.80;;;0.50;;
47749;SDS011;49810;48.160;10.812;2023-03-13T07:19:10;1.35;;;0.50;;
47749;SDS011;49810;48.160;10.812;2023-03-13T07:21:38;1.45;;;0.80;;
47749;SDS011;49810;48.160;10.812;2023-03-13T07:24:06;2.70;;;0.80;;
47749;SDS011;49810;48.160;10.812;2023-03-13T07:26:34;0.85;;;0.50;;
47749;SDS011;49810;48.160;10.812;2023-03-13T07:29:03;1.55;;;0.50;;
47749;SDS011;49810;48.160;10.812;2023-03-13T07:31:31;1.85;;;0.60;;
47749;SDS011;49810;48.160;10.812;2023-03-13T07:34:01;1.38;;;0.50;;
47749;SDS011;49810;48.160;10.812;2023-03-13T07:36:29;3.03;;;0.60;;
47749;SDS011;49810;48.160;10.812;2023-03-13T07:38:57;3.30;;;0.60;;
47749;SDS011;49810;48.160;10.812;2023-03-13T07:41:24;1.35;;;0.65;;
47749;SDS011;49810;48.160;10.812;2023-03-13T07:43:54;1.02;;;0.50;;
47749;SDS011;49810;48.160;10.812;2023-03-13T07:46:25;1.48;;;0.50;;
47749;SDS011;49810;48.160;10.812;2023-03-13T07:48:54;0.68;;;0.40;;
47749;SDS011;49810;48.160;10.812;2023-03-13T07:51:23;0.93;;;0.40;;
47749;SDS011;49810;48.160;10.812;2023-03-13T07:54:08;2.90;;;0.50;;
47749;SDS011;49810;48.160;10.812;2023-03-13T07:56:37;9.07;;;1.70;;
47749;SDS011;49810;48.160;10.812;2023-03-13T07:59:05;2.72;;;0.90;;
47749;SDS011;49810;48.160;10.812;2023-03-13T08:01:34;3.28;;;0.70;;
47749;SDS011;49810;48.160;10.812;2023-03-13T08:04:02;6.82;;;0.90;;
47749;SDS011;49810;48.160;10.812;2023-03-13T08:06:31;3.42;;;1.08;;
47749;SDS011;49810;48.160;10.812;2023-03-13T08:09:01;2.75;;;1.02;;
47749;SDS011;49810;48.160;10.812;2023-03-13T08:11:29;2.97;;;0.80;;
47749;SDS011;49810;48.160;10.812;2023-03-13T08:13:57;1.75;;;0.73;;
47749;SDS011;49810;48.160;10.812;2023-03-13T08:16:25;1.75;;;0.93;;
47749;SDS011;49810;48.160;10.812;2023-03-13T08:18:55;2.42;;;1.05;;
47749;SDS011;49810;48.160;10.812;2023-03-13T08:21:24;2.58;;;0.80;;
47749;SDS011;49810;48.160;10.812;2023-03-13T08:23:53;0.90;;;0.57;;
47749;SDS011;49810;48.160;10.812;2023-03-13T08:26:22;2.08;;;0.60;;
47749;SDS011;49810;48.160;10.812;2023-03-13T08:28:51;1.15;;;0.45;;
47749;SDS011;49810;48.160;10.812;2023-03-13T08:31:21;2.00;;;0.40;;
47749;SDS011;49810;48.160;10.812;2023-03-13T08:33:49;1.33;;;0.60;;
47749;SDS011;49810;48.160;10.812;2023-03-13T08:36:19;1.83;;;0.57;;
47749;SDS011;49810;48.160;10.812;2023-03-13T08:38:48;2.15;;;0.88;;
47749;SDS011;49810;48.160;10.812;2023-03-13T08:41:17;1.92;;;0.40;;
47749;SDS011;49810;48.160;10.812;2023-03-13T08:43:45;2.17;;;0.80;;
47749;SDS011;49810;48.160;10.812;2023-03-13T08:46:13;1.35;;;0.77;;
47749;SDS011;49810;48.160;10.812;2023-03-13T08:48:47;1.20;;;0.60;;
47749;SDS011;49810;48.160;10.812;2023-03-13T08:51:15;2.40;;;0.52;;
47749;SDS011;49810;48.160;10.812;2023-03-13T08:53:44;3.75;;;0.68;;
47749;SDS011;49810;48.160;10.812;2023-03-13T08:56:13;2.65;;;0.77;;
47749;SDS011;49810;48.160;10.812;2023-03-13T08:58:41;1.13;;;0.52;;
47749;SDS011;49810;48.160;10.812;2023-03-13T09:01:09;1.65;;;0.65;;
47749;SDS011;49810;48.160;10.812;2023-03-13T09:03:38;2.75;;;0.60;;
47749;SDS011;49810;48.160;10.812;2023-03-13T09:06:06;1.73;;;0.60;;
47749;SDS011;49810;48.160;10.812;2023-03-13T09:08:34;2.78;;;0.55;;
47749;SDS011;49810;48.160;10.812;2023-03-13T09:11:04;1.02;;;0.40;;
47749;SDS011;49810;48.160;10.812;2023-03-13T09:13:33;3.70;;;0.70;;
47749;SDS011;49810;48.160;10.812;2023-03-13T09:16:02;2.03;;;0.77;;
47749;SDS011;49810;48.160;10.812;2023-03-13T09:18:31;1.58;;;0.50;;
47749;SDS011;49810;48.160;10.812;2023-03-13T09:20:59;0.73;;;0.50;;
47749;SDS011;49810;48.160;10.812;2023-03-13T09:23:27;2.58;;;0.50;;
47749;SDS011;49810;48.160;10.812;2023-03-13T09:25:55;1.40;;;0.63;;
47749;SDS011;49810;48.160;10.812;2023-03-13T09:28:25;1.67;;;0.75;;
47749;SDS011;49810;48.160;10.812;2023-03-13T09:30:53;2.28;;;0.60;;
47749;SDS011;49810;48.160;10.812;2023-03-13T09:33:21;0.47;;;0.30;;
47749;SDS011;49810;48.160;10.812;2023-03-13T09:35:49;1.85;;;0.65;;
47749;SDS011;49810;48.160;10.812;2023-03-13T09:38:17;1.08;;;0.40;;
47749;SDS011;49810;48.160;10.812;2023-03-13T09:40:46;2.17;;;0.60;;
47749;SDS011;49810;48.160;10.812;2023-03-13T09:43:36;1.02;;;0.50;;
47749;SDS011;49810;48.160;10.812;2023-03-13T09:46:08;0.77;;;0.43;;
47749;SDS011;49810;48.160;10.812;2023-03-13T09:48:39;1.63;;;0.43;;
47749;SDS011;49810;48.160;10.812;2023-03-13T09:51:10;1.15;;;0.47;;
47749;SDS011;49810;48.160;10.812;2023-03-13T09:53:40;1.83;;;0.63;;
47749;SDS011;49810;48.160;10.812;2023-03-13T09:56:11;1.70;;;0.65;;
47749;SDS011;49810;48.160;10.812;2023-03-13T09:58:42;1.88;;;0.90;;
47749;SDS011;49810;48.160;10.812;2023-03-13T10:01:12;1.67;;;0.40;;
47749;SDS011;49810;48.160;10.812;2023-03-13T10:03:45;1.27;;;0.40;;
47749;SDS011;49810;48.160;10.812;2023-03-13T10:06:17;1.60;;;0.40;;
47749;SDS011;49810;48.160;10.812;2023-03-13T10:08:45;2.42;;;0.52;;
47749;SDS011;49810;48.160;10.812;2023-03-13T10:11:16;1.30;;;0.45;;
47749;SDS011;49810;48.160;10.812;2023-03-13T10:13:50;1.52;;;0.50;;
47749;SDS011;49810;48.160;10.812;2023-03-13T10:16:20;2.00;;;0.40;;
47749;SDS011;49810;48.160;10.812;2023-03-13T10:18:51;1.48;;;0.50;;
47749;SDS011;49810;48.160;10.812;2023-03-13T10:21:22;0.90;;;0.45;;
47749;SDS011;49810;48.160;10.812;2023-03-13T10:23:50;1.38;;;0.50;;
47749;SDS011;49810;48.160;10.812;2023-03-13T10:26:20;1.83;;;0.60;;
47749;SDS011;49810;48.160;10.812;2023-03-13T10:28:50;1.85;;;0.50;;
47749;SDS011;49810;48.160;10.812;2023-03-13T10:31:20;1.33;;;0.63;;
47749;SDS011;49810;48.160;10.812;2023-03-13T10:33:49;1.77;;;0.45;;
47749;SDS011;49810;48.160;10.812;2023-03-13T10:36:17;2.03;;;0.55;;
47749;SDS011;49810;48.160;10.812;2023-03-13T10:38:47;2.78;;;0.95;;
47749;SDS011;49810;48.160;10.812;2023-03-13T10:41:21;2.83;;;0.90;;
47749;SDS011;49810;48.160;10.812;2023-03-13T10:43:53;2.95;;;0.55;;
47749;SDS011;49810;48.160;10.812;2023-03-13T10:46:24;2.25;;;0.60;;
47749;SDS011;49810;48.160;10.812;2023-03-13T10:48:53;1.30;;;0.40;;
47749;SDS011;49810;48.160;10.812;2023-03-13T10:51:21;2.78;;;0.57;;
47749;SDS011;49810;48.160;10.812;2023-03-13T10:53:49;1.55;;;0.50;;
47749;SDS011;49810;48.160;10.812;2023-03-13T10:56:28;1.92;;;0.70;;
47749;SDS011;49810;48.160;10.812;2023-03-13T10:58:58;1.92;;;0.80;;
47749;SDS011;49810;48.160;10.812;2023-03-13T11:01:27;1.50;;;0.60;;
47749;SDS011;49810;48.160;10.812;2023-03-13T11:03:57;1.42;;;0.73;;
47749;SDS011;49810;48.160;10.812;2023-03-13T11:06:27;2.03;;;0.55;;
47749;SDS011;49810;48.160;10.812;2023-03-13T11:08:59;1.67;;;0.70;;
47749;SDS011;49810;48.160;10.812;2023-03-13T11:11:30;0.80;;;0.40;;
47749;SDS011;49810;48.160;10.812;2023-03-13T11:14:11;3.15;;;0.82;;
47749;SDS011;49810;48.160;10.812;2023-03-13T11:16:41;2.05;;;0.68;;
47749;SDS011;49810;48.160;10.812;2023-03-13T11:19:27;1.67;;;0.70;;
47749;SDS011;49810;48.160;10.812;2023-03-13T11:21:59;2.50;;;0.82;;
47749;SDS011;49810;48.160;10.812;2023-03-13T11:24:31;3.63;;;0.70;;
47749;SDS011;49810;48.160;10.812;2023-03-13T11:27:03;3.05;;;0.80;;
47749;SDS011;49810;48.160;10.812;2023-03-13T11:29:37;1.88;;;0.88;;
47749;SDS011;49810;48.160;10.812;2023-03-13T11:32:10;1.50;;;0.63;;
47749;SDS011;49810;48.160;10.812;2023-03-13T11:34:43;2.05;;;0.70;;
47749;SDS011;49810;48.160;10.812;2023-03-13T11:37:17;1.63;;;0.77;;
47749;SDS011;49810;48.160;10.812;2023-03-13T11:39:48;2.45;;;0.80;;
47749;SDS011;49810;48.160;10.812;2023-03-13T11:42:32;3.38;;;0.90;;
47749;SDS011;49810;48.160;10.812;2023-03-13T11:47:40;2.15;;;0.95;;
47749;SDS011;49810;48.160;10.812;2023-03-13T11:50:18;3.88;;;1.00;;
47749;SDS011;49810;48.160;10.812;2023-03-13T11:52:57;3.15;;;1.10;;
47749;SDS011;49810;48.160;10.812;2023-03-13T11:55:34;2.45;;;0.93;;
47749;SDS011;49810;48.160;10.812;2023-03-13T11:58:10;4.85;;;1.30;;
47749;SDS011;49810;48.160;10.812;2023-03-13T12:00:39;4.40;;;1.25;;
47749;SDS011;49810;48.160;10.812;2023-03-13T12:03:13;3.00;;;0.82;;
47749;SDS011;49810;48.160;10.812;2023-03-13T12:05:42;5.40;;;1.30;;
47749;SDS011;49810;48.160;10.812;2023-03-13T12:08:14;4.20;;;1.33;;
47749;SDS011;49810;48.160;10.812;2023-03-13T12:10:45;3.40;;;1.27;;
47749;SDS011;49810;48.160;10.812;2023-03-13T12:13:15;3.40;;;1.33;;
47749;SDS011;49810;48.160;10.812;2023-03-13T12:15:46;5.72;;;1.52;;
47749;SDS011;49810;48.160;10.812;2023-03-13T12:18:18;3.75;;;1.20;;
47749;SDS011;49810;48.160;10.812;2023-03-13T12:20:48;3.97;;;1.23;;
47749;SDS011;49810;48.160;10.812;2023-03-13T12:23:19;3.30;;;0.90;;
47749;SDS011;49810;48.160;10.812;2023-03-13T12:25:50;6.75;;;1.45;;
47749;SDS011;49810;48.160;10.812;2023-03-13T12:28:22;1.48;;;1.02;;
47749;SDS011;49810;48.160;10.812;2023-03-13T12:30:55;8.73;;;1.38;;
47749;SDS011;49810;48.160;10.812;2023-03-13T12:33:28;3.47;;;1.00;;
47749;SDS011;49810;48.160;10.812;2023-03-13T12:35:59;4.70;;;1.27;;
47749;SDS011;49810;48.160;10.812;2023-03-13T12:38:33;2.58;;;1.05;;
47749;SDS011;49810;48.160;10.812;2023-03-13T12:41:07;4.60;;;1.33;;
47749;SDS011;49810;48.160;10.812;2023-03-13T12:43:39;7.53;;;1.20;;
47749;SDS011;49810;48.160;10.812;2023-03-13T12:46:14;5.28;;;1.65;;
47749;SDS011;49810;48.160;10.812;2023-03-13T12:48:57;2.58;;;1.23;;
47749;SDS011;49810;48.160;10.812;2023-03-13T12:51:33;2.13;;;1.08;;
47749;SDS011;49810;48.160;10.812;2023-03-13T12:54:15;3.25;;;1.00;;
47749;SDS011;49810;48.160;10.812;2023-03-13T12:56:52;3.78;;;1.17;;
47749;SDS011;49810;48.160;10.812;2023-03-13T13:01:54;2.85;;;1.00;;
47749;SDS011;49810;48.160;10.812;2023-03-13T13:04:24;4.28;;;1.00;;
47749;SDS011;49810;48.160;10.812;2023-03-13T13:06:56;4.07;;;0.80;;
47749;SDS011;49810;48.160;10.812;2023-03-13T13:09:27;4.00;;;1.30;;
47749;SDS011;49810;48.160;10.812;2023-03-13T13:11:57;2.10;;;0.73;;
47749;SDS011;49810;48.160;10.812;2023-03-13T13:19:50;3.85;;;1.13;;
47749;SDS011;49810;48.160;10.812;2023-03-13T13:27:52;2.42;;;0.77;;
47749;SDS011;49810;48.160;10.812;2023-03-13T13:30:29;0.98;;;0.52;;
47749;SDS011;49810;48.160;10.812;2023-03-13T13:35:42;2.20;;;0.95;;
47749;SDS011;49810;48.160;10.812;2023-03-13T13:46:43;1.95;;;0.60;;
47749;SDS011;49810;48.160;10.812;2023-03-13T13:49:14;1.30;;;0.50;;
47749;SDS011;49810;48.160;10.812;2023-03-13T13:54:51;1.55;;;0.50;;
47749;SDS011;49810;48.160;10.812;2023-03-13T13:57:22;1.50;;;0.57;;
47749;SDS011;49810;48.160;10.812;2023-03-13T13:59:53;1.13;;;0.60;;
47749;SDS011;49810;48.160;10.812;2023-03-13T14:02:23;1.85;;;0.60;;
47749;SDS011;49810;48.160;10.812;2023-03-13T14:04:59;1.05;;;0.47;;
47749;SDS011;49810;48.160;10.812;2023-03-13T14:07:29;1.20;;;0.70;;
47749;SDS011;49810;48.160;10.812;2023-03-13T14:10:00;1.10;;;0.57;;
47749;SDS011;49810;48.160;10.812;2023-03-13T14:12:30;2.75;;;0.70;;
47749;SDS011;49810;48.160;10.812;2023-03-13T14:15:09;1.90;;;0.55;;
47749;SDS011;49810;48.160;10.812;2023-03-13T14:17:39;1.25;;;0.60;;
47749;SDS011;49810;48.160;10.812;2023-03-13T14:20:17;2.05;;;0.60;;
47749;SDS011;49810;48.160;10.812;2023-03-13T14:22:49;2.80;;;0.50;;
47749;SDS011;49810;48.160;10.812;2023-03-13T14:25:18;1.40;;;0.30;;
47749;SDS011;49810;48.160;10.812;2023-03-13T14:27:48;0.95;;;0.40;;
47749;SDS011;49810;48.160;10.812;2023-03-13T14:30:17;1.15;;;0.30;;
47749;SDS011;49810;48.160;10.812;2023-03-13T14:32:46;1.70;;;0.30;;
47749;SDS011;49810;48.160;10.812;2023-03-13T14:35:16;1.70;;;0.40;;
47749;SDS011;49810;48.160;10.812;2023-03-13T14:37:48;1.85;;;0.57;;
47749;SDS011;49810;48.160;10.812;2023-03-13T14:40:22;0.85;;;0.50;;
47749;SDS011;49810;48.160;10.812;2023-03-13T14:42:50;2.90;;;0.55;;
47749;SDS011;49810;48.160;10.812;2023-03-13T14:45:21;1.05;;;0.50;;
47749;SDS011;49810;48.160;10.812;2023-03-13T14:47:49;0.90;;;0.40;;
47749;SDS011;49810;48.160;10.812;2023-03-13T14:50:17;3.42;;;0.50;;
47749;SDS011;49810;48.160;10.812;2023-03-13T14:52:48;1.38;;;0.43;;
47749;SDS011;49810;48.160;10.812;2023-03-13T14:55:31;1.75;;;0.47;;
47749;SDS011;49810;48.160;10.812;2023-03-13T14:58:00;0.50;;;0.38;;
47749;SDS011;49810;48.160;10.812;2023-03-13T15:00:33;0.88;;;0.43;;
47749;SDS011;49810;48.160;10.812;2023-03-13T15:03:11;1.30;;;0.40;;
47749;SDS011;49810;48.160;10.812;2023-03-13T15:05:39;0.68;;;0.40;;
47749;SDS011;49810;48.160;10.812;2023-03-13T15:08:10;2.50;;;0.45;;
47749;SDS011;49810;48.160;10.812;2023-03-13T15:10:40;0.55;;;0.30;;
47749;SDS011;49810;48.160;10.812;2023-03-13T15:13:15;1.38;;;0.80;;
47749;SDS011;49810;48.160;10.812;2023-03-13T15:15:45;1.65;;;0.68;;
47749;SDS011;49810;48.160;10.812;2023-03-13T15:18:17;1.15;;;0.50;;
47749;SDS011;49810;48.160;10.812;2023-03-13T15:20:48;1.60;;;0.57;;
47749;SDS011;49810;48.160;10.812;2023-03-13T15:23:17;1.30;;;0.40;;
47749;SDS011;49810;48.160;10.812;2023-03-13T15:25:46;1.70;;;0.43;;
47749;SDS011;49810;48.160;10.812;2023-03-13T15:28:15;2.88;;;0.50;;
47749;SDS011;49810;48.160;10.812;2023-03-13T15:30:43;2.63;;;0.65;;
47749;SDS011;49810;48.160;10.812;2023-03-13T15:33:12;1.48;;;0.43;;
47749;SDS011;49810;48.160;10.812;2023-03-13T15:35:41;0.93;;;0.52;;